Time;durP1;ratioP1;P1;durP2;ratioP2;P2;SDS_P1;SDS_P2;PMS_P1;PMS_P2;Temp;Humidity;BMP_temperature;BMP_pressure;BME280_temperature;BME280_humidity;BME280_pressure;Samples;Min_cycle;Max_cycle;Signal;HPM_P1;HPM_P2
2022/10/03 00:00:25;;;;;;;1.30;1.20;;;16.70;51.50;;;;;;4991871;28;20853;-76
2022/10/03 00:03:24;;;;;;;1.30;1.10;;;16.60;52.00;;;;;;4991359;28;20465;-76
2022/10/03 00:06:14;;;;;;;1.30;1.20;;;16.30;52.70;;;;;;4991455;28;20432;-76
2022/10/03 00:08:51;;;;;;;1.30;1.10;;;16.10;53.50;;;;;;4994048;28;20439;-76
2022/10/03 00:11:31;;;;;;;1.30;1.10;;;16.00;54.00;;;;;;4993700;28;20462;-76
2022/10/03 00:14:10;;;;;;;1.30;1.10;;;15.90;54.10;;;;;;4993766;28;20402;-76
2022/10/03 00:17:03;;;;;;;1.30;1.10;;;15.70;53.90;;;;;;4993733;28;20449;-76
2022/10/03 00:19:39;;;;;;;1.30;1.00;;;15.60;55.10;;;;;;4994066;28;20514;-75
2022/10/03 00:22:31;;;;;;;1.30;1.10;;;15.60;55.70;;;;;;4993223;28;20492;-76
2022/10/03 00:25:34;;;;;;;1.30;1.10;;;15.70;53.90;;;;;;4993650;28;20405;-76
2022/10/03 00:28:11;;;;;;;1.30;1.10;;;15.90;53.60;;;;;;4993704;28;20480;-76
2022/10/03 00:31:00;;;;;;;1.30;1.20;;;16.10;52.30;;;;;;4993712;28;20410;-76
2022/10/03 00:33:25;;;;;;;1.30;1.10;;;15.80;52.20;;;;;;4992891;28;20451;-76
2022/10/03 00:35:54;;;;;;;1.30;1.00;;;15.70;52.90;;;;;;4992468;28;20418;-76
2022/10/03 00:38:36;;;;;;;1.30;1.10;;;15.60;53.80;;;;;;4993260;28;20213;-76
2022/10/03 00:41:20;;;;;;;1.30;1.20;;;15.60;53.70;;;;;;4993160;28;20408;-76
2022/10/03 00:44:07;;;;;;;1.30;1.10;;;15.70;53.90;;;;;;4993103;28;20420;-76
2022/10/03 00:46:53;;;;;;;1.30;1.20;;;15.70;55.10;;;;;;5008490;28;20776;-76
2022/10/03 00:49:25;;;;;;;1.30;1.20;;;15.70;54.30;;;;;;4993453;28;20762;-76
2022/10/03 00:52:11;;;;;;;1.30;1.10;;;15.80;54.00;;;;;;4992729;28;20956;-76
2022/10/03 00:54:58;;;;;;;1.30;1.00;;;15.80;54.30;;;;;;4993018;28;20443;-76
2022/10/03 00:57:29;;;;;;;1.30;1.20;;;15.70;54.60;;;;;;4993036;28;20949;-76
2022/10/03 01:00:16;;;;;;;1.30;1.10;;;15.60;54.90;;;;;;4992843;28;20442;-76
2022/10/03 01:02:47;;;;;;;1.30;1.10;;;15.60;55.10;;;;;;4992480;28;20416;-76
2022/10/03 01:05:32;;;;;;;1.30;1.20;;;15.70;55.30;;;;;;4990705;28;20516;-76
2022/10/03 01:08:38;;;;;;;1.30;1.10;;;15.80;54.80;;;;;;4992622;28;20430;-76
2022/10/03 01:11:27;;;;;;;1.30;1.10;;;15.90;54.70;;;;;;4992666;28;20540;-76
2022/10/03 01:14:30;;;;;;;1.30;1.00;;;15.80;54.00;;;;;;4992280;28;20548;-76
2022/10/03 01:17:13;;;;;;;1.30;1.10;;;15.70;54.60;;;;;;4991522;28;20440;-76
2022/10/03 01:20:04;;;;;;;1.30;1.10;;;15.70;55.40;;;;;;4992625;28;20786;-76
2022/10/03 01:22:45;;;;;;;1.30;1.10;;;15.70;54.90;;;;;;4989172;28;20421;-76
2022/10/03 01:25:29;;;;;;;1.30;1.10;;;15.70;55.00;;;;;;4992458;28;20476;-76
2022/10/03 01:31:02;;;;;;;1.30;1.20;;;15.80;55.40;;;;;;4992240;28;20966;-76
2022/10/03 01:33:47;;;;;;;1.30;1.03;;;15.90;55.30;;;;;;4992157;28;20954;-76
2022/10/03 01:36:32;;;;;;;1.30;1.10;;;15.80;55.30;;;;;;4992624;28;20401;-76
2022/10/03 01:39:06;;;;;;;1.30;1.00;;;15.80;56.40;;;;;;4992302;28;20452;-76
2022/10/03 01:41:34;;;;;;;1.30;1.13;;;15.70;56.00;;;;;;4991850;28;20414;-76
2022/10/03 01:44:19;;;;;;;1.30;1.00;;;15.40;56.80;;;;;;4992096;28;20490;-76
2022/10/03 01:46:54;;;;;;;1.30;1.10;;;15.00;59.30;;;;;;4991968;28;20421;-76
2022/10/03 01:49:30;;;;;;;1.30;1.10;;;14.90;60.30;;;;;;4992365;28;20409;-76
2022/10/03 01:52:08;;;;;;;1.30;1.10;;;15.00;58.00;;;;;;4991899;28;20456;-76
2022/10/03 01:54:50;;;;;;;1.30;1.07;;;15.00;58.70;;;;;;4992047;28;20498;-76
2022/10/03 01:57:45;;;;;;;1.30;1.10;;;15.20;57.10;;;;;;4992204;28;21021;-76
2022/10/03 02:00:16;;;;;;;1.30;1.00;;;15.50;57.70;;;;;;4992457;28;21041;-76
2022/10/03 02:02:42;;;;;;;1.30;1.13;;;15.20;56.90;;;;;;4991696;28;20897;-76
2022/10/03 02:05:11;;;;;;;1.30;1.00;;;15.60;56.20;;;;;;4992272;28;20418;-76
2022/10/03 02:08:04;;;;;;;1.30;1.10;;;15.40;55.90;;;;;;4991902;28;20549;-76
2022/10/03 02:10:55;;;;;;;1.30;1.10;;;15.50;55.20;;;;;;4992243;28;20389;-76
2022/10/03 02:13:42;;;;;;;1.30;1.10;;;15.50;55.00;;;;;;4991984;28;20840;-76
2022/10/03 02:16:24;;;;;;;1.30;1.10;;;15.50;55.20;;;;;;4991905;28;20425;-76
2022/10/03 02:19:14;;;;;;;1.30;1.00;;;15.20;55.50;;;;;;4991894;28;20480;-76
2022/10/03 02:21:54;;;;;;;1.30;1.20;;;15.10;56.20;;;;;;4991605;28;20461;-76
2022/10/03 02:24:47;;;;;;;1.30;1.00;;;15.30;56.00;;;;;;4991876;28;20421;-76
2022/10/03 02:27:51;;;;;;;1.30;1.10;;;15.20;55.80;;;;;;4992039;28;20892;-76
2022/10/03 02:30:36;;;;;;;1.30;1.20;;;15.00;56.50;;;;;;4992073;28;20441;-76
2022/10/03 02:33:31;;;;;;;1.30;1.00;;;14.80;56.70;;;;;;4991354;28;20418;-76
2022/10/03 02:36:34;;;;;;;1.30;1.10;;;14.90;57.30;;;;;;4991535;28;20917;-76
2022/10/03 02:39:03;;;;;;;1.30;1.10;;;15.30;55.70;;;;;;4991781;28;20943;-76
2022/10/03 02:41:51;;;;;;;1.30;1.20;;;15.60;53.80;;;;;;4991370;28;20434;-76
2022/10/03 02:44:45;;;;;;;1.30;1.20;;;15.70;53.90;;;;;;4991713;28;20425;-76
2022/10/03 02:47:32;;;;;;;1.30;1.17;;;15.70;54.40;;;;;;4991839;28;20449;-76
2022/10/03 02:50:31;;;;;;;1.30;1.20;;;15.80;55.10;;;;;;4991677;28;20944;-76
2022/10/03 02:53:09;;;;;;;1.30;1.20;;;15.70;54.60;;;;;;4991145;28;20402;-76
2022/10/03 02:56:08;;;;;;;1.30;1.20;;;15.70;54.50;;;;;;4991511;28;20407;-76
2022/10/03 02:58:55;;;;;;;1.30;1.10;;;15.70;54.70;;;;;;4993133;28;20429;-76
2022/10/03 03:01:46;;;;;;;1.30;1.10;;;15.70;53.90;;;;;;4995139;28;20405;-76
2022/10/03 03:04:11;;;;;;;1.27;1.10;;;15.80;54.00;;;;;;4995077;28;20927;-76
2022/10/03 03:07:10;;;;;;;1.30;1.10;;;15.70;54.50;;;;;;5009920;28;20406;-76
2022/10/03 03:09:46;;;;;;;1.30;1.10;;;15.70;54.40;;;;;;4995482;28;20246;-76
2022/10/03 03:12:49;;;;;;;1.30;1.10;;;15.70;55.00;;;;;;4994873;28;20390;-76
2022/10/03 03:15:27;;;;;;;1.30;1.10;;;15.60;55.40;;;;;;4994953;28;20776;-76
2022/10/03 03:18:16;;;;;;;1.30;1.20;;;15.80;54.30;;;;;;4994929;28;20490;-76
2022/10/03 03:21:00;;;;;;;1.30;1.10;;;15.80;54.90;;;;;;4994719;28;20495;-76
2022/10/03 03:23:53;;;;;;;1.30;1.10;;;16.60;55.80;;;;;;4994707;28;20444;-76
2022/10/03 03:26:32;;;;;;;1.30;1.10;;;15.90;54.90;;;;;;4995061;28;20394;-76
2022/10/03 03:29:36;;;;;;;1.30;1.10;;;15.90;54.60;;;;;;4994631;28;20399;-76
2022/10/03 03:32:43;;;;;;;1.30;1.20;;;16.00;55.50;;;;;;4994309;28;20544;-76
2022/10/03 03:35:32;;;;;;;1.30;1.10;;;15.90;55.60;;;;;;4994500;28;20440;-76
2022/10/03 03:38:24;;;;;;;1.30;1.10;;;15.90;55.80;;;;;;4994525;28;20457;-76
2022/10/03 03:41:17;;;;;;;1.30;1.20;;;15.90;55.80;;;;;;4994260;28;20419;-76
2022/10/03 03:44:28;;;;;;;1.30;1.10;;;15.70;56.20;;;;;;4994156;28;20406;-76
2022/10/03 03:47:29;;;;;;;1.30;1.20;;;15.60;56.90;;;;;;4993892;28;20433;-76
2022/10/03 03:50:21;;;;;;;1.30;1.10;;;15.70;56.10;;;;;;4991576;28;20413;-76
2022/10/03 03:53:19;;;;;;;1.30;1.10;;;15.70;55.30;;;;;;4991455;28;20437;-76
2022/10/03 03:56:09;;;;;;;1.30;1.10;;;15.80;55.30;;;;;;4988196;28;20839;-76
2022/10/03 03:58:50;;;;;;;1.30;1.10;;;15.50;55.50;;;;;;4991612;28;20512;-76
2022/10/03 04:01:36;;;;;;;1.30;1.10;;;15.50;56.40;;;;;;4991377;28;20403;-76
2022/10/03 04:04:18;;;;;;;1.30;1.00;;;15.50;56.60;;;;;;4991457;28;20403;-76
2022/10/03 04:07:14;;;;;;;1.30;1.10;;;15.80;55.00;;;;;;4991758;28;20438;-76
2022/10/03 04:09:58;;;;;;;1.30;1.10;;;16.10;54.20;;;;;;4991523;28;20941;-76
2022/10/03 04:12:47;;;;;;;1.30;1.10;;;16.00;54.10;;;;;;4991226;28;20422;-76
2022/10/03 04:15:33;;;;;;;1.30;1.10;;;15.90;54.10;;;;;;4991281;28;20429;-75
2022/10/03 04:21:44;;;;;;;1.30;1.20;;;16.10;52.90;;;;;;4991162;28;20895;-76
2022/10/03 04:24:39;;;;;;;1.30;1.10;;;16.10;52.30;;;;;;4991255;28;20401;-76
2022/10/03 04:27:30;;;;;;;1.30;1.10;;;16.00;52.30;;;;;;4993635;28;20549;-76
2022/10/03 04:30:16;;;;;;;1.30;1.10;;;15.90;52.70;;;;;;5011508;28;20848;-75
2022/10/03 04:33:08;;;;;;;1.30;1.07;;;15.80;52.30;;;;;;4995109;28;20497;-76
2022/10/03 04:36:12;;;;;;;1.30;1.10;;;15.60;52.90;;;;;;4993416;28;20409;-76
2022/10/03 04:38:57;;;;;;;1.30;1.10;;;15.30;53.80;;;;;;4992509;28;20478;-76
2022/10/03 04:41:41;;;;;;;1.30;1.10;;;15.20;53.70;;;;;;4993102;28;20410;-75
2022/10/03 04:44:34;;;;;;;1.30;1.10;;;14.80;57.20;;;;;;5008111;28;20472;-76
2022/10/03 04:47:25;;;;;;;1.30;1.20;;;14.40;60.70;;;;;;4993307;28;20429;-75
2022/10/03 04:50:07;;;;;;;1.30;1.10;;;14.40;61.00;;;;;;4993063;28;20917;-75
2022/10/03 04:52:38;;;;;;;1.30;1.10;;;14.60;59.50;;;;;;4992529;28;20425;-76
2022/10/03 04:55:22;;;;;;;1.30;1.10;;;14.90;58.00;;;;;;4992922;28;20390;-76
2022/10/03 04:58:14;;;;;;;1.30;1.10;;;14.70;57.70;;;;;;4993012;28;20429;-76
2022/10/03 05:01:14;;;;;;;1.30;1.10;;;14.30;60.40;;;;;;4992848;28;20461;-73
2022/10/03 05:04:00;;;;;;;1.30;1.10;;;13.30;68.00;;;;;;4992704;28;20409;-73
2022/10/03 05:06:47;;;;;;;1.30;1.13;;;13.40;69.90;;;;;;4992738;28;20477;-74
2022/10/03 05:09:37;;;;;;;1.30;1.10;;;13.90;64.70;;;;;;4993022;28;20405;-74
2022/10/03 05:12:27;;;;;;;1.30;1.20;;;14.30;61.40;;;;;;4992361;28;20393;-74
2022/10/03 05:15:06;;;;;;;1.30;1.10;;;14.40;60.50;;;;;;4992514;28;20877;-74
2022/10/03 05:17:58;;;;;;;1.30;1.07;;;14.50;59.50;;;;;;4992775;28;20520;-74
2022/10/03 05:20:47;;;;;;;1.30;1.00;;;14.60;58.10;;;;;;4992332;28;20480;-74
2022/10/03 05:23:19;;;;;;;1.30;1.20;;;14.70;57.70;;;;;;4991196;28;20451;-74
2022/10/03 05:26:03;;;;;;;1.30;1.17;;;14.70;57.00;;;;;;4992541;28;20900;-74
2022/10/03 05:28:52;;;;;;;1.30;1.10;;;14.50;58.00;;;;;;4992487;28;20436;-74
2022/10/03 05:31:33;;;;;;;1.30;1.10;;;14.20;59.40;;;;;;4992244;28;20847;-73
2022/10/03 05:34:11;;;;;;;1.30;1.17;;;14.30;59.10;;;;;;4992259;28;20803;-74
2022/10/03 05:37:27;;;;;;;1.30;1.10;;;14.60;58.90;;;;;;4992051;28;20397;-74
2022/10/03 05:40:10;;;;;;;1.30;1.13;;;15.00;55.40;;;;;;4989780;28;20505;-74
2022/10/03 05:42:48;;;;;;;1.30;1.00;;;15.10;54.90;;;;;;4989572;28;20421;-74
2022/10/03 05:45:32;;;;;;;1.30;1.10;;;15.00;55.00;;;;;;4989504;28;20417;-74
2022/10/03 05:48:12;;;;;;;1.30;1.07;;;15.10;55.00;;;;;;4989820;28;20434;-74
2022/10/03 05:51:01;;;;;;;1.30;1.10;;;15.20;54.30;;;;;;4989833;28;20791;-74
2022/10/03 05:53:29;;;;;;;1.30;1.10;;;15.30;53.50;;;;;;4989539;28;20492;-74
2022/10/03 05:56:13;;;;;;;1.30;1.10;;;15.20;53.40;;;;;;4989656;28;20420;-74
2022/10/03 05:59:21;;;;;;;1.30;1.10;;;14.90;55.60;;;;;;4989710;28;20440;-74
2022/10/03 06:02:17;;;;;;;1.30;1.20;;;15.10;56.30;;;;;;4989057;28;20428;-74
2022/10/03 06:05:18;;;;;;;1.30;1.10;;;15.30;53.50;;;;;;4989508;28;20480;-74
2022/10/03 06:07:58;;;;;;;1.30;1.20;;;15.30;53.00;;;;;;4950508;28;20449;-74
2022/10/03 06:10:39;;;;;;;1.30;1.10;;;15.60;51.80;;;;;;4951054;29;20431;-76
2022/10/03 06:13:13;;;;;;;1.30;1.10;;;15.70;50.90;;;;;;4950556;29;20847;-76
2022/10/03 06:15:53;;;;;;;1.30;1.10;;;15.50;52.30;;;;;;4950585;29;20935;-76
2022/10/03 06:18:33;;;;;;;1.30;1.20;;;15.20;53.40;;;;;;4950858;29;20545;-75
2022/10/03 06:21:10;;;;;;;1.30;1.20;;;14.80;55.40;;;;;;4950529;29;20400;-76
2022/10/03 06:23:46;;;;;;;1.30;1.10;;;14.70;56.50;;;;;;4950715;29;20403;-75
2022/10/03 06:26:35;;;;;;;1.30;1.10;;;14.50;58.80;;;;;;4951012;29;20800;-75
2022/10/03 06:29:34;;;;;;;1.30;1.10;;;14.10;61.80;;;;;;4950753;29;20402;-76
2022/10/03 06:32:21;;;;;;;1.30;1.20;;;14.40;60.10;;;;;;4950328;28;20510;-76
2022/10/03 06:35:24;;;;;;;1.30;1.10;;;14.40;58.00;;;;;;4954138;29;20426;-73
2022/10/03 06:38:22;;;;;;;1.30;1.10;;;14.20;60.50;;;;;;4954266;29;21048;-73
2022/10/03 06:41:29;;;;;;;1.30;1.10;;;14.30;62.80;;;;;;4953786;29;20466;-73
2022/10/03 06:43:57;;;;;;;1.30;1.00;;;13.50;66.40;;;;;;4966425;28;20924;-73
2022/10/03 06:46:40;;;;;;;1.30;1.10;;;14.20;65.30;;;;;;4995421;28;20452;-73
2022/10/03 06:49:33;;;;;;;1.30;1.20;;;14.30;61.70;;;;;;4995616;28;20405;-73
2022/10/03 06:52:20;;;;;;;1.30;1.10;;;14.30;60.40;;;;;;4994691;28;20418;-73
2022/10/03 06:54:51;;;;;;;1.30;1.10;;;14.40;59.50;;;;;;4995246;28;20495;-73
2022/10/03 06:57:34;;;;;;;1.30;1.10;;;14.40;60.80;;;;;;4995267;28;20445;-76
2022/10/03 07:00:19;;;;;;;1.30;1.17;;;15.10;56.90;;;;;;4994971;28;20452;-76
2022/10/03 07:03:06;;;;;;;1.30;1.20;;;15.30;55.30;;;;;;4994463;28;20435;-76
2022/10/03 07:05:59;;;;;;;1.30;1.20;;;15.50;53.70;;;;;;4995227;28;20500;-76
2022/10/03 07:08:34;;;;;;;1.30;1.10;;;15.70;52.30;;;;;;4995113;28;20552;-76
2022/10/03 07:11:09;;;;;;;1.30;1.10;;;15.40;52.50;;;;;;4994761;28;20544;-76
2022/10/03 07:13:49;;;;;;;1.30;1.10;;;15.80;51.50;;;;;;4994920;28;20466;-76
2022/10/03 07:16:33;;;;;;;1.30;1.10;;;15.80;52.20;;;;;;4995025;28;20413;-76
2022/10/03 07:19:27;;;;;;;1.30;1.10;;;15.70;53.80;;;;;;4995008;28;20457;-76
2022/10/03 07:22:23;;;;;;;1.30;1.10;;;15.60;53.60;;;;;;4994409;28;20917;-76
2022/10/03 07:25:08;;;;;;;1.30;1.20;;;15.80;52.30;;;;;;4994704;28;20513;-76
2022/10/03 07:28:18;;;;;;;1.30;1.10;;;15.90;52.10;;;;;;4994725;28;20485;-76
2022/10/03 07:31:12;;;;;;;1.30;1.20;;;16.00;53.40;;;;;;4993528;28;20769;-76
2022/10/03 07:33:59;;;;;;;1.30;1.10;;;16.00;51.20;;;;;;4994451;28;20468;-76
2022/10/03 07:40:09;;;;;;;1.30;1.20;;;16.20;50.20;;;;;;4993551;28;20464;-76
2022/10/03 07:43:09;;;;;;;1.30;1.10;;;16.20;51.10;;;;;;4994034;28;20410;-76
2022/10/03 07:45:40;;;;;;;1.30;1.10;;;16.10;52.80;;;;;;4993942;28;20403;-76
2022/10/03 07:49:02;;;;;;;1.30;1.20;;;16.30;51.10;;;;;;4994456;28;20422;-76
2022/10/03 07:51:59;;;;;;;1.30;1.30;;;16.40;52.00;;;;;;4991793;28;20413;-76
2022/10/03 07:54:30;;;;;;;1.30;1.10;;;16.30;52.30;;;;;;4991978;28;20412;-76
2022/10/03 07:56:59;;;;;;;1.30;1.20;;;16.40;51.00;;;;;;4975579;28;20446;-76
2022/10/03 07:59:52;;;;;;;1.30;1.20;;;16.50;52.60;;;;;;4991714;28;20459;-76
2022/10/03 08:02:45;;;;;;;1.30;1.10;;;16.70;52.10;;;;;;4991242;28;20415;-76
2022/10/03 08:05:13;;;;;;;1.30;1.20;;;16.90;50.20;;;;;;4991701;28;20917;-76
2022/10/03 08:07:53;;;;;;;1.30;1.13;;;16.70;51.10;;;;;;4991161;28;20437;-76
2022/10/03 08:11:04;;;;;;;1.30;1.10;;;16.90;49.50;;;;;;4974709;28;20417;-76
2022/10/03 08:14:05;;;;;;;1.30;1.20;;;16.90;49.20;;;;;;4990442;28;20901;-76
2022/10/03 08:17:07;;;;;;;1.30;1.20;;;17.00;49.40;;;;;;4951794;28;20425;-75
2022/10/03 08:20:13;;;;;;;1.30;1.23;;;16.30;50.70;;;;;;4990471;28;20542;-76
2022/10/03 08:22:58;;;;;;;1.30;1.20;;;16.40;50.70;;;;;;4950936;29;20524;-76
2022/10/03 08:25:33;;;;;;;1.30;1.30;;;16.20;50.80;;;;;;4951521;29;20561;-76
2022/10/03 08:28:16;;;;;;;1.30;1.20;;;15.90;52.70;;;;;;4951620;29;20449;-76
2022/10/03 08:31:10;;;;;;;1.30;1.13;;;16.00;52.90;;;;;;4950692;29;20859;-76
2022/10/03 08:34:06;;;;;;;1.30;1.10;;;16.30;52.10;;;;;;4951033;29;20512;-76
2022/10/03 08:36:41;;;;;;;1.30;1.10;;;16.70;50.00;;;;;;4951425;29;20404;-76
2022/10/03 08:39:25;;;;;;;1.30;1.20;;;16.80;50.50;;;;;;4951585;29;20458;-76
2022/10/03 08:42:18;;;;;;;1.30;1.10;;;16.40;50.10;;;;;;4950185;29;20946;-75
2022/10/03 08:44:49;;;;;;;1.30;1.13;;;16.40;53.00;;;;;;4951891;29;20415;-76
2022/10/03 08:47:39;;;;;;;1.30;1.10;;;16.60;50.70;;;;;;4952528;29;20434;-76
2022/10/03 08:50:33;;;;;;;1.30;1.20;;;15.90;53.90;;;;;;4952152;29;20803;-76
2022/10/03 08:53:27;;;;;;;1.30;1.10;;;16.20;54.30;;;;;;4950884;29;20417;-76
2022/10/03 08:56:15;;;;;;;1.30;1.20;;;16.30;51.80;;;;;;4948978;28;20422;-76
2022/10/03 08:59:04;;;;;;;1.30;1.10;;;16.60;52.10;;;;;;4981009;28;20457;-75
2022/10/03 09:01:49;;;;;;;1.30;1.10;;;16.90;50.40;;;;;;4993083;28;20553;-75
2022/10/03 09:05:10;;;;;;;1.30;1.10;;;17.00;51.10;;;;;;4992860;28;20399;-76
2022/10/03 09:07:48;;;;;;;1.30;1.20;;;16.90;49.70;;;;;;4950681;29;20426;-76
2022/10/03 09:10:25;;;;;;;1.30;1.20;;;17.30;47.40;;;;;;4984729;28;20471;-76
2022/10/03 09:13:06;;;;;;;1.30;1.13;;;16.80;46.60;;;;;;4991825;28;20784;-76
2022/10/03 09:16:08;;;;;;;1.30;1.10;;;16.90;49.40;;;;;;4986685;28;20467;-76
2022/10/03 09:19:00;;;;;;;1.30;1.20;;;17.10;49.70;;;;;;4992755;28;20428;-76
2022/10/03 09:21:44;;;;;;;1.30;1.17;;;17.50;49.00;;;;;;4983722;28;20460;-76
2022/10/03 09:24:35;;;;;;;1.30;1.20;;;17.60;46.50;;;;;;4992367;28;20401;-76
2022/10/03 09:27:25;;;;;;;1.30;1.20;;;17.70;45.10;;;;;;4992615;28;20427;-76
2022/10/03 09:30:12;;;;;;;1.30;1.10;;;17.10;45.20;;;;;;4992396;28;20767;-76
2022/10/03 09:33:09;;;;;;;1.30;1.20;;;17.10;44.10;;;;;;4990819;28;20580;-76
2022/10/03 09:35:53;;;;;;;1.30;1.20;;;16.50;46.60;;;;;;4992471;28;20412;-76
2022/10/03 09:38:46;;;;;;;1.30;1.10;;;17.00;45.70;;;;;;4992264;28;20573;-75
2022/10/03 09:41:32;;;;;;;1.30;1.10;;;16.60;46.00;;;;;;4991921;28;20431;-76
2022/10/03 09:44:23;;;;;;;1.30;1.20;;;16.50;44.50;;;;;;4992377;28;20393;-76
2022/10/03 09:47:22;;;;;;;1.30;1.20;;;17.10;46.00;;;;;;4992216;28;20431;-76
2022/10/03 09:50:21;;;;;;;1.30;1.20;;;17.20;45.70;;;;;;4992249;28;20401;-76
2022/10/03 09:53:23;;;;;;;1.30;1.20;;;18.10;43.30;;;;;;4991599;28;20461;-76
2022/10/03 09:56:00;;;;;;;1.30;1.20;;;17.70;43.30;;;;;;4991832;28;20403;-76
2022/10/03 09:58:49;;;;;;;1.30;1.10;;;18.00;42.30;;;;;;4992271;28;20516;-76
2022/10/03 10:01:21;;;;;;;1.30;1.10;;;18.10;41.30;;;;;;4991834;28;20957;-76
2022/10/03 10:03:49;;;;;;;1.30;1.17;;;18.20;41.00;;;;;;4991633;28;20399;-76
2022/10/03 10:06:24;;;;;;;1.30;1.10;;;18.50;40.20;;;;;;4992426;28;20421;-76
2022/10/03 10:09:18;;;;;;;1.30;1.20;;;18.50;43.20;;;;;;4991986;28;20419;-76
2022/10/03 10:12:06;;;;;;;1.30;1.20;;;18.40;43.40;;;;;;4991726;28;20935;-76
2022/10/03 10:15:02;;;;;;;1.30;1.10;;;18.50;44.60;;;;;;4991839;28;20410;-76
2022/10/03 10:17:27;;;;;;;1.30;1.20;;;18.50;42.60;;;;;;4992080;28;20579;-76
2022/10/03 10:20:29;;;;;;;1.30;1.10;;;17.50;40.20;;;;;;4991762;28;20523;-75
2022/10/03 10:23:11;;;;;;;1.30;1.17;;;16.60;45.00;;;;;;4991707;28;20202;-75
2022/10/03 10:26:22;;;;;;;1.30;1.10;;;16.90;45.20;;;;;;4991842;28;20400;-75
2022/10/03 10:28:56;;;;;;;1.30;1.20;;;17.00;44.90;;;;;;4983076;28;20489;-75
2022/10/03 10:32:03;;;;;;;1.30;1.13;;;16.70;45.10;;;;;;4991572;28;20385;-75
2022/10/03 10:34:41;;;;;;;1.30;1.10;;;17.20;45.10;;;;;;4988590;28;20437;-76
2022/10/03 10:37:34;;;;;;;1.30;1.10;;;17.90;43.30;;;;;;4991771;28;20455;-76
2022/10/03 10:40:15;;;;;;;1.30;1.20;;;18.20;41.50;;;;;;4991679;28;20553;-76
2022/10/03 10:43:23;;;;;;;1.30;1.20;;;18.60;39.50;;;;;;4991493;28;20762;-76
2022/10/03 10:46:10;;;;;;;1.30;1.10;;;18.40;41.00;;;;;;4991627;28;20394;-76
2022/10/03 10:48:54;;;;;;;1.30;1.30;;;18.50;42.90;;;;;;4991965;28;20456;-75
2022/10/03 10:51:29;;;;;;;1.30;1.20;;;18.40;40.20;;;;;;4991407;28;20414;-75
2022/10/03 10:54:25;;;;;;;1.30;1.20;;;17.70;43.20;;;;;;4991474;28;20403;-75
2022/10/03 10:57:04;;;;;;;1.30;1.20;;;17.30;42.80;;;;;;4991532;28;20469;-75
2022/10/03 11:00:07;;;;;;;1.30;1.10;;;17.30;44.60;;;;;;4991478;28;20536;-75
2022/10/03 11:02:38;;;;;;;1.30;1.10;;;17.80;41.90;;;;;;4991165;28;20917;-75
2022/10/03 11:05:41;;;;;;;1.30;1.10;;;17.30;42.00;;;;;;4991225;28;20762;-75
2022/10/03 11:08:41;;;;;;;1.30;1.27;;;16.90;42.80;;;;;;4991634;28;20845;-75
2022/10/03 11:11:06;;;;;;;1.30;1.10;;;16.70;42.20;;;;;;4991262;28;20433;-75
2022/10/03 11:13:51;;;;;;;1.30;1.17;;;16.80;41.90;;;;;;4991419;28;20507;-75
2022/10/03 11:16:28;;;;;;;1.30;1.20;;;16.90;42.60;;;;;;4991268;28;20170;-75
2022/10/03 11:19:16;;;;;;;1.30;1.10;;;17.50;41.70;;;;;;4990771;28;20427;-75
2022/10/03 11:22:01;;;;;;;1.30;1.10;;;17.70;41.70;;;;;;4995850;28;20436;-76
2022/10/03 11:24:29;;;;;;;1.30;1.10;;;18.50;36.90;;;;;;4994424;28;20409;-76
2022/10/03 11:27:43;;;;;;;1.30;1.20;;;19.10;34.00;;;;;;4994751;28;20442;-76
2022/10/03 11:30:21;;;;;;;1.30;1.20;;;19.40;39.20;;;;;;4994929;28;20409;-76
2022/10/03 11:33:26;;;;;;;1.30;1.20;;;19.60;34.10;;;;;;4994233;28;20424;-75
2022/10/03 11:36:22;;;;;;;1.50;1.30;;;19.60;31.80;;;;;;4983611;28;20443;-75
2022/10/03 11:39:14;;;;;;;1.30;1.10;;;19.30;30.60;;;;;;4994393;28;20442;-76
2022/10/03 11:42:14;;;;;;;1.30;1.07;;;20.10;35.40;;;;;;4994399;28;20446;-74
2022/10/03 11:45:09;;;;;;;1.30;1.20;;;21.10;30.60;;;;;;4994550;28;20470;-74
2022/10/03 11:47:40;;;;;;;1.30;1.17;;;21.80;29.90;;;;;;4986140;28;20439;-74
2022/10/03 11:50:40;;;;;;;1.30;1.10;;;20.90;29.80;;;;;;4994751;28;20554;-74
2022/10/03 11:53:25;;;;;;;1.30;1.10;;;20.80;32.60;;;;;;4994063;28;20400;-76
2022/10/03 11:56:23;;;;;;;1.30;1.10;;;20.00;31.20;;;;;;4994194;28;20506;-76
2022/10/03 11:59:24;;;;;;;1.30;1.10;;;19.30;33.10;;;;;;4994341;28;20437;-76
2022/10/03 12:01:57;;;;;;;1.30;1.20;;;18.20;33.40;;;;;;4993730;28;20409;-76
2022/10/03 12:04:59;;;;;;;1.30;1.20;;;18.90;35.40;;;;;;4994370;28;20403;-74
2022/10/03 12:10:51;;;;;;;1.30;1.20;;;20.00;33.90;;;;;;4994461;28;20412;-74
2022/10/03 12:13:28;;;;;;;1.30;1.10;;;19.90;30.40;;;;;;4994141;28;20882;-74
2022/10/03 12:15:57;;;;;;;1.30;1.10;;;20.20;28.50;;;;;;4993915;28;20413;-74
2022/10/03 12:18:47;;;;;;;1.30;1.20;;;20.00;29.40;;;;;;4994198;28;20508;-74
2022/10/03 12:21:20;;;;;;;1.30;1.10;;;20.80;29.90;;;;;;4993710;28;20955;-74
2022/10/03 12:24:07;;;;;;;1.30;1.20;;;20.80;32.90;;;;;;4993370;28;20428;-74
2022/10/03 12:27:05;;;;;;;1.30;1.20;;;20.60;28.10;;;;;;4993781;28;20441;-73
2022/10/03 12:29:35;;;;;;;1.30;1.10;;;19.80;29.30;;;;;;4993875;28;20432;-73
2022/10/03 12:32:11;;;;;;;1.30;1.20;;;19.90;28.70;;;;;;4993415;28;20456;-74
2022/10/03 12:34:48;;;;;;;1.30;1.10;;;19.50;28.80;;;;;;4993396;28;20439;-74
2022/10/03 12:37:23;;;;;;;1.30;1.13;;;20.40;28.20;;;;;;4993215;28;20541;-73
2022/10/03 12:39:49;;;;;;;1.30;1.20;;;20.20;28.50;;;;;;4993591;28;20524;-74
2022/10/03 12:42:56;;;;;;;1.30;1.10;;;23.70;30.00;;;;;;4993048;28;20878;-74
2022/10/03 12:45:42;;;;;;;1.30;1.10;;;21.10;26.60;;;;;;4971529;28;20183;-74
2022/10/03 12:48:45;;;;;;;1.30;1.20;;;21.70;27.20;;;;;;4971389;28;20473;-74
2022/10/03 12:51:19;;;;;;;1.30;1.20;;;22.40;26.80;;;;;;4969893;28;20586;-74
2022/10/03 12:53:50;;;;;;;1.30;1.10;;;22.40;27.00;;;;;;4971127;28;20417;-74
2022/10/03 12:56:36;;;;;;;1.30;1.20;;;22.00;27.90;;;;;;4971279;28;21039;-74
2022/10/03 12:59:19;;;;;;;1.30;1.20;;;21.80;28.40;;;;;;4971431;28;20419;-74
2022/10/03 13:02:12;;;;;;;1.83;1.37;;;22.00;28.50;;;;;;4970949;28;20418;-74
2022/10/03 13:05:06;;;;;;;1.30;1.10;;;22.10;27.70;;;;;;4971280;28;20395;-74
2022/10/03 13:07:43;;;;;;;1.30;1.20;;;21.90;27.30;;;;;;4970907;28;20433;-74
2022/10/03 13:10:24;;;;;;;1.30;1.17;;;21.50;27.50;;;;;;4971582;28;20423;-74
2022/10/03 13:13:15;;;;;;;1.30;1.10;;;21.20;28.70;;;;;;4970528;28;20422;-74
2022/10/03 13:16:30;;;;;;;1.30;1.20;;;20.70;29.50;;;;;;4961025;28;20467;-74
2022/10/03 13:19:17;;;;;;;1.30;1.10;;;20.60;29.50;;;;;;4962559;28;20452;-73
2022/10/03 13:22:06;;;;;;;1.30;1.20;;;19.30;29.70;;;;;;4992115;28;20935;-73
2022/10/03 13:25:00;;;;;;;1.30;1.27;;;18.60;32.00;;;;;;4992644;28;20428;-73
2022/10/03 13:27:41;;;;;;;1.30;1.20;;;18.30;32.20;;;;;;4991162;28;20480;-73
2022/10/03 13:30:21;;;;;;;1.30;1.20;;;18.90;31.60;;;;;;4992858;28;20527;-73
2022/10/03 13:32:54;;;;;;;1.30;1.13;;;19.40;32.60;;;;;;4991967;28;20403;-73
2022/10/03 13:38:45;;;;;;;1.30;1.20;;;18.90;31.70;;;;;;4992502;28;20461;-74
2022/10/03 13:41:45;;;;;;;1.30;1.20;;;19.30;29.40;;;;;;4990929;28;20465;-74
2022/10/03 13:44:16;;;;;;;1.30;1.17;;;19.50;29.00;;;;;;4992272;28;20744;-74
2022/10/03 13:46:58;;;;;;;1.30;1.10;;;19.70;29.20;;;;;;4992625;28;20392;-74
2022/10/03 13:49:31;;;;;;;1.30;1.20;;;20.60;31.10;;;;;;4992613;28;20404;-74
2022/10/03 13:52:34;;;;;;;1.30;1.20;;;20.40;27.10;;;;;;4991883;28;20429;-74
2022/10/03 13:55:15;;;;;;;1.30;1.13;;;20.70;28.90;;;;;;4992089;28;20415;-74
2022/10/03 13:58:12;;;;;;;1.30;1.20;;;21.60;29.50;;;;;;4992242;28;20427;-74
2022/10/03 14:01:10;;;;;;;1.30;1.17;;;22.20;27.20;;;;;;4992222;28;20460;-74
2022/10/03 14:03:56;;;;;;;1.30;1.20;;;21.80;25.50;;;;;;4992047;28;21088;-74
2022/10/03 14:06:26;;;;;;;1.30;1.10;;;21.40;27.70;;;;;;4992455;28;20421;-74
2022/10/03 14:09:19;;;;;;;1.30;1.20;;;22.10;27.50;;;;;;4991986;28;20798;-74
2022/10/03 14:11:58;;;;;;;1.30;1.20;;;22.60;25.30;;;;;;4992122;28;20412;-74
2022/10/03 14:14:33;;;;;;;1.30;1.20;;;22.00;25.10;;;;;;4992029;28;20408;-74
2022/10/03 14:17:29;;;;;;;1.30;1.10;;;22.50;26.70;;;;;;4991991;28;20805;-74
2022/10/03 14:20:28;;;;;;;1.30;1.20;;;23.20;26.40;;;;;;4987939;28;20463;-77
2022/10/03 14:23:19;;;;;;;1.30;1.10;;;23.40;24.00;;;;;;4991565;28;20418;-74
2022/10/03 14:25:59;;;;;;;1.30;1.00;;;23.50;23.80;;;;;;4991834;28;20515;-74
2022/10/03 14:28:59;;;;;;;1.30;1.10;;;23.70;24.20;;;;;;4991809;28;20433;-74
2022/10/03 14:31:55;;;;;;;1.30;1.10;;;23.70;23.80;;;;;;4988713;28;20432;-74
2022/10/03 14:34:45;;;;;;;1.30;1.20;;;23.20;24.10;;;;;;4989876;28;20537;-74
2022/10/03 14:37:39;;;;;;;1.30;1.20;;;22.80;24.90;;;;;;4992036;28;20454;-74
2022/10/03 14:40:19;;;;;;;1.30;1.10;;;22.50;25.30;;;;;;4991875;28;20491;-74
2022/10/03 14:43:00;;;;;;;1.30;1.10;;;22.10;25.70;;;;;;4991087;28;20417;-74
2022/10/03 14:45:35;;;;;;;1.30;1.10;;;21.90;26.90;;;;;;4991736;28;20400;-74